CheckWX is a tool to help pilots better visualize weather data.  It is not intended as a substitute for an official pre-flight weather briefing.

15:43:23 UTC

DTTG METAR
Gabès Matmata International Airport
Gabès, Tunisia
Current

43 mins ago

DTTG 231500Z 07013KT 040V110 9999 FEW020 26/10 Q1017 NOSIG
Observed
May-23 @ 15:00 UTC
Wind
  • 070° at 13 KTS
Visibility
10,000+ meters
Flight Rules
VFR
Cloud Levels
  • Few at 2,000' AGL
Temperature
26°C / 79°F
Dewpoint
10°C / 50°F
Humidity
37%
Altimeter
30.03" Hg
Pressure
1016.92 hPa
Previous

43 mins ago

DTTG 231500Z 07013KT 040V110 9999 FEW020 26/10 Q1017 NOSIG
Observed
May-23 @ 15:00 UTC
Wind
  • 070° at 13 KTS
Visibility
10,000+ meters
Flight Rules
VFR
Cloud Levels
  • Few at 2,000' AGL
Temperature
26°C / 79°F
Dewpoint
10°C / 50°F
Humidity
37%
Altimeter
30.03" Hg
Pressure
1016.92 hPa
Previous

2 hours ago

DTTG 231400Z 07013KT 9999 FEW020 27/11 Q1017 NOSIG
Observed
May-23 @ 14:00 UTC
Wind
  • 070° at 13 KTS
Visibility
10,000+ meters
Flight Rules
VFR
Cloud Levels
  • Few at 2,000' AGL
Temperature
27°C / 81°F
Dewpoint
11°C / 52°F
Humidity
37%
Altimeter
30.03" Hg
Pressure
1016.92 hPa